Portada
METAR-TAF:

METAR-TAF

Aeroports :

Koror, Babeldaob, Palau

latitud: 07-22N, longitud: 134-32E, altitud: 54 m

Observació

L'informe es va fer fa 35 minuts, a les 17:50 UTC
Vent 11 kt del Oest/Sud-Oest amb ràfegues de 17 kt
Temperatura 27°C
Humitat 84%
Pressió 1008 hPa
Visibilitat: 24.1 km
Núvols disperses a una alçada de 1600 ft, Cumulus congestus.
Cel ennuvolat a una alçada de 12000 ft
Cel ennuvolat a una alçada de 30000 ft

METAR: PTRO 231750Z 24011G17KT 15SM SCT016TCU BKN120 BKN300 27/24 A2977 RMK TCU ALQDS

Hora: 03:25 (18:25 UTC)

Pronòstic

L'informe es va fer fa 55 minuts, a les 17:30 UTC
Pronòstic vàlid del 23 a les 18 UTC al 24 a les 18 UTC
Vent 12 kt del Oest/Sud-Oest amb ràfegues de 21 kt
Visibilitat: 10 km
Núvols disperses a una alçada de 1600 ft
Cel ennuvolat a una alçada de 12000 ft
xàfecs en les proximitats

TAF: PTRO 231730Z 2318/2418 24012G21KT P6SM VCSH SCT016 BKN120

Observacions i pronòstics meteorològics de més de 4000 aeroports (METAR i TAF).

Les estacions disponibles són els punts grocs i vermells al mapa.

Posi el ratolí al punt desitjat per veure el nom de l'estació.

Feu clic per veure les observacions i els pronòstics meteorològics.

Per canviar el mapa: feu clic els botons verds amb una creu de color negre per apropar; al botó verd amb un guió per allunyar la imatge; o en les fletxes verdes per a mapes adjacents.


METAR-TAF: